createdAt,value
2019-02-28T00:00:13.353Z,67.47
2019-02-28T00:03:18.065Z,66.10
2019-02-28T00:06:22.715Z,66.57
2019-02-28T00:09:27.528Z,66.27
2019-02-28T00:12:32.365Z,68.00
2019-02-28T00:15:42.144Z,63.20
2019-02-28T00:18:49.536Z,64.87
2019-02-28T00:21:53.646Z,63.60
2019-02-28T00:25:01.195Z,64.90
2019-02-28T00:28:05.117Z,62.77
2019-02-28T00:31:14.236Z,62.93
2019-02-28T00:34:16.426Z,60.60
2019-02-28T00:37:24.677Z,62.77
2019-02-28T00:40:29.236Z,61.50
2019-02-28T00:43:33.865Z,62.00
2019-02-28T00:46:43.973Z,60.33
2019-02-28T00:49:45.067Z,59.47
2019-02-28T00:52:50.041Z,59.33
2019-02-28T00:55:54.633Z,59.07
2019-02-28T00:59:00.553Z,57.33
2019-02-28T01:02:06.019Z,56.73
2019-02-28T01:05:10.879Z,55.87
2019-02-28T01:08:19.089Z,56.47
2019-02-28T01:11:22.777Z,55.63
2019-02-28T01:14:27.478Z,54.80
2019-02-28T01:17:32.236Z,53.87
2019-02-28T01:20:40.279Z,55.93
2019-02-28T01:23:47.189Z,54.97
2019-02-28T01:26:54.043Z,54.00
2019-02-28T01:29:58.611Z,51.60
2019-02-28T01:33:03.550Z,51.77
2019-02-28T01:36:08.462Z,51.73
2019-02-28T01:39:13.304Z,52.60
2019-02-28T01:42:19.985Z,50.00
2019-02-28T01:45:24.492Z,51.63
2019-02-28T01:48:29.342Z,49.83
2019-02-28T01:51:36.713Z,51.00
2019-02-28T01:54:40.518Z,50.93
2019-02-28T01:57:45.257Z,49.70
2019-02-28T02:00:53.533Z,48.80
2019-02-28T02:03:57.670Z,50.13
2019-02-28T02:07:02.533Z,49.17
2019-02-28T02:10:14.333Z,46.13
2019-02-28T02:13:20.339Z,46.60
2019-02-28T02:16:27.864Z,45.43
2019-02-28T02:19:32.685Z,46.03
2019-02-28T02:22:37.537Z,45.63
2019-02-28T02:25:42.328Z,42.47
2019-02-28T02:28:47.970Z,43.23
2019-02-28T02:31:52.511Z,42.90
2019-02-28T02:35:05.751Z,41.27
2019-02-28T02:38:04.836Z,43.00
2019-02-28T02:41:09.663Z,39.23
2019-02-28T02:44:14.394Z,43.10
2019-02-28T02:47:19.109Z,39.17
2019-02-28T02:50:23.845Z,37.63
2019-02-28T02:53:28.581Z,38.40
2019-02-28T02:56:40.651Z,37.83
2019-02-28T02:59:39.862Z,38.00
2019-02-28T03:02:44.610Z,37.43
2019-02-28T03:05:49.543Z,35.73
2019-02-28T03:08:54.365Z,37.50
2019-02-28T03:11:59.187Z,35.87
2019-02-28T03:15:04.021Z,36.23
2019-02-28T03:18:12.336Z,33.60
2019-02-28T03:21:17.052Z,35.33
2019-02-28T03:24:21.698Z,35.63
2019-02-28T03:27:26.396Z,34.77
2019-02-28T03:30:33.174Z,35.47
2019-02-28T03:33:38.415Z,34.93
2019-02-28T03:36:43.690Z,34.40
2019-02-28T03:39:51.593Z,33.50
2019-02-28T03:42:56.396Z,30.83
2019-02-28T03:46:01.240Z,32.87
2019-02-28T03:49:10.863Z,32.27
2019-02-28T03:52:16.634Z,32.30
2019-02-28T03:55:21.456Z,31.30
2019-02-28T03:58:26.401Z,30.60
2019-02-28T04:01:34.163Z,29.40
2019-02-28T04:04:38.915Z,29.57
2019-02-28T04:07:52.934Z,29.03
2019-02-28T04:10:54.787Z,28.47
2019-02-28T04:13:58.113Z,28.67
2019-02-28T04:17:02.937Z,27.27
2019-02-28T04:20:07.595Z,27.20
2019-02-28T04:23:12.632Z,25.83
2019-02-28T04:26:17.544Z,25.63
2019-02-28T04:29:30.025Z,25.87
2019-02-28T04:32:30.455Z,26.73
2019-02-28T04:35:35.207Z,29.20
2019-02-28T04:38:39.834Z,24.00
2019-02-28T04:41:47.885Z,20.43
2019-02-28T04:44:52.631Z,22.33
2019-02-28T04:47:57.499Z,21.63
2019-02-28T04:51:05.438Z,21.37
2019-02-28T04:54:08.780Z,19.27
2019-02-28T04:57:13.519Z,19.17
2019-02-28T05:00:18.286Z,29.00
2019-02-28T05:03:27.907Z,20.00
2019-02-28T05:06:29.869Z,19.00
2019-02-28T05:09:36.131Z,18.47
2019-02-28T05:12:41.095Z,19.03
2019-02-28T05:15:48.800Z,19.53
2019-02-28T05:18:53.586Z,18.43
2019-02-28T05:21:58.563Z,16.83
2019-02-28T05:25:03.235Z,16.60
2019-02-28T05:28:07.974Z,18.10
2019-02-28T05:31:12.688Z,21.27
2019-02-28T05:34:17.431Z,19.40
2019-02-28T05:37:23.358Z,17.43
2019-02-28T05:40:28.221Z,17.57
2019-02-28T05:43:33.045Z,208.77
2019-02-28T05:46:37.884Z,40.00
2019-02-28T05:49:42.449Z,17.53
2019-02-28T05:52:48.645Z,17.47
2019-02-28T05:55:58.833Z,16.67
2019-02-28T05:58:59.829Z,18.33
2019-02-28T06:02:04.576Z,17.63
2019-02-28T06:05:11.836Z,18.23
2019-02-28T06:08:16.872Z,18.23
2019-02-28T06:11:21.631Z,18.10
2019-02-28T06:14:28.535Z,16.90
2019-02-28T06:17:34.343Z,18.43
2019-02-28T06:20:38.887Z,18.33
2019-02-28T06:23:43.596Z,18.30
2019-02-28T06:26:49.689Z,18.93
2019-02-28T06:29:57.363Z,19.37
2019-02-28T06:33:03.649Z,22.10
2019-02-28T06:36:08.438Z,25.63
2019-02-28T06:39:13.194Z,20.60
2019-02-28T06:42:18.130Z,23.07
2019-02-28T06:45:25.129Z,22.00
2019-02-28T06:48:29.731Z,20.93
2019-02-28T06:51:35.697Z,21.63
2019-02-28T06:54:41.943Z,20.40
2019-02-28T06:57:46.878Z,20.17
2019-02-28T07:00:52.884Z,19.93
2019-02-28T07:03:57.759Z,21.30
2019-02-28T07:07:02.323Z,20.80
2019-02-28T07:10:09.667Z,19.47
2019-02-28T07:13:17.797Z,19.10
2019-02-28T07:16:22.709Z,18.10
2019-02-28T07:19:28.696Z,17.90
2019-02-28T07:22:33.380Z,17.47
2019-02-28T07:25:39.280Z,18.43
2019-02-28T07:28:43.925Z,17.20
2019-02-28T07:31:49.617Z,16.80
2019-02-28T07:34:58.270Z,17.80
2019-02-28T07:38:02.993Z,17.30
2019-02-28T07:41:09.874Z,16.03
2019-02-28T07:44:21.221Z,16.30
2019-02-28T07:47:22.687Z,16.53
2019-02-28T07:50:27.111Z,16.00
2019-02-28T07:53:31.956Z,16.20
2019-02-28T07:56:42.735Z,16.07
2019-02-28T07:59:43.239Z,15.57
2019-02-28T08:02:48.094Z,14.37
2019-02-28T08:05:52.905Z,13.97
2019-02-28T08:08:57.633Z,14.33
2019-02-28T08:12:02.554Z,14.70
2019-02-28T08:15:11.308Z,14.20
2019-02-28T08:18:18.655Z,13.07
2019-02-28T08:21:22.277Z,15.17
2019-02-28T08:24:27.218Z,14.80
2019-02-28T08:27:31.928Z,14.70
2019-02-28T08:30:36.668Z,14.27
2019-02-28T08:33:41.499Z,13.40
2019-02-28T08:36:48.798Z,12.10
2019-02-28T08:39:53.719Z,12.73
2019-02-28T08:42:58.565Z,13.43
2019-02-28T08:46:09.776Z,13.17
2019-02-28T08:49:14.836Z,12.60
2019-02-28T08:52:19.477Z,12.73
2019-02-28T08:55:28.687Z,13.80
2019-02-28T08:58:31.000Z,13.13
2019-02-28T09:01:40.110Z,12.63
2019-02-28T09:04:47.559Z,13.63
2019-02-28T09:07:54.492Z,11.30
2019-02-28T09:10:59.341Z,12.90
2019-02-28T09:14:06.240Z,11.77
2019-02-28T09:17:11.018Z,12.60
2019-02-28T09:20:16.005Z,11.40
2019-02-28T09:23:20.780Z,11.90
2019-02-28T09:26:28.177Z,12.47
2019-02-28T09:29:31.991Z,11.80
2019-02-28T09:32:38.867Z,12.23
2019-02-28T09:35:46.256Z,11.73
2019-02-28T09:38:56.850Z,11.50
2019-02-28T09:41:56.630Z,13.37
2019-02-28T09:45:06.705Z,11.80
2019-02-28T09:48:07.948Z,11.53
2019-02-28T09:51:12.458Z,11.67
2019-02-28T09:54:17.277Z,11.83
2019-02-28T09:57:23.013Z,11.63
2019-02-28T10:00:28.075Z,11.10
2019-02-28T10:03:34.597Z,10.97
2019-02-28T10:06:39.370Z,10.67
2019-02-28T10:09:46.844Z,10.93
2019-02-28T10:12:51.572Z,12.07
2019-02-28T10:15:58.462Z,10.70
2019-02-28T10:19:05.121Z,11.00
2019-02-28T10:22:14.668Z,11.30
2019-02-28T10:25:22.492Z,11.13
2019-02-28T10:28:32.126Z,11.40
2019-02-28T10:31:38.491Z,11.77
2019-02-28T10:34:45.556Z,12.40
2019-02-28T10:37:57.450Z,11.40
2019-02-28T10:41:03.205Z,11.67
2019-02-28T10:44:07.928Z,10.50
2019-02-28T10:47:12.462Z,11.53
2019-02-28T10:50:19.000Z,11.53
2019-02-28T10:53:23.866Z,11.73
2019-02-28T10:56:31.671Z,11.63
2019-02-28T10:59:35.177Z,11.40
2019-02-28T11:02:39.993Z,12.30
2019-02-28T11:05:45.889Z,11.83
2019-02-28T11:08:52.232Z,12.20
2019-02-28T11:11:57.031Z,12.23
2019-02-28T11:15:01.868Z,12.90
2019-02-28T11:18:09.757Z,11.67
2019-02-28T11:21:14.064Z,11.63
2019-02-28T11:24:20.647Z,11.97
2019-02-28T11:27:26.907Z,11.87
2019-02-28T11:30:31.854Z,11.90
2019-02-28T11:33:39.702Z,12.47
2019-02-28T11:36:44.767Z,12.60
2019-02-28T11:39:49.420Z,12.70
2019-02-28T11:42:54.145Z,13.07
2019-02-28T11:46:00.756Z,13.83
2019-02-28T11:49:05.329Z,12.80
2019-02-28T11:52:11.885Z,12.97
2019-02-28T11:55:16.742Z,12.33
2019-02-28T11:58:24.699Z,12.97
2019-02-28T12:01:29.367Z,13.27
2019-02-28T12:04:37.414Z,14.50
2019-02-28T12:07:43.538Z,13.20
2019-02-28T12:10:48.256Z,12.90
2019-02-28T12:13:55.182Z,13.47
2019-02-28T12:16:59.669Z,13.57
2019-02-28T12:20:04.607Z,13.63
2019-02-28T12:23:09.475Z,14.00
2019-02-28T12:26:14.328Z,13.17
2019-02-28T12:29:20.716Z,13.57
2019-02-28T12:32:25.644Z,14.80
2019-02-28T12:35:37.560Z,14.23
2019-02-28T12:38:36.845Z,12.53
2019-02-28T12:41:41.688Z,13.73
2019-02-28T12:44:49.025Z,12.57
2019-02-28T12:47:53.102Z,13.50
2019-02-28T12:50:57.938Z,13.97
2019-02-28T12:54:02.727Z,16.93
2019-02-28T12:57:07.360Z,19.13
2019-02-28T13:00:26.325Z,21.60
2019-02-28T13:03:31.279Z,21.57
2019-02-28T13:06:35.977Z,23.10
2019-02-28T13:09:40.507Z,22.57
2019-02-28T13:12:48.855Z,22.77
2019-02-28T13:15:53.652Z,22.13
2019-02-28T13:18:58.580Z,25.17
2019-02-28T13:22:03.417Z,26.20
2019-02-28T13:25:11.642Z,26.03
2019-02-28T13:28:17.698Z,23.77
2019-02-28T13:31:25.575Z,25.53
2019-02-28T13:34:29.007Z,27.87
2019-02-28T13:37:37.483Z,26.70
2019-02-28T13:40:44.845Z,27.37
2019-02-28T13:43:50.301Z,27.10
2019-02-28T13:46:55.951Z,28.00
2019-02-28T13:50:00.817Z,27.37
2019-02-28T13:53:17.517Z,28.93
2019-02-28T13:56:13.744Z,28.00
2019-02-28T13:59:18.684Z,28.13
2019-02-28T14:02:26.286Z,28.97
2019-02-28T14:05:29.873Z,33.50
2019-02-28T14:08:34.691Z,31.17
2019-02-28T14:11:41.888Z,31.10
2019-02-28T14:14:45.581Z,27.83
2019-02-28T14:17:50.718Z,26.13
2019-02-28T14:20:55.681Z,15.40
2019-02-28T14:24:00.591Z,23.13
2019-02-28T14:27:05.440Z,17.07
2019-02-28T14:30:11.884Z,13.80
2019-02-28T14:33:19.506Z,11.80
2019-02-28T14:36:23.217Z,9.70
2019-02-28T14:39:28.118Z,10.37
2019-02-28T14:42:34.558Z,10.00
2019-02-28T14:45:42.840Z,9.07
2019-02-28T14:48:46.406Z,10.43
2019-02-28T14:51:51.012Z,11.00
2019-02-28T14:54:57.137Z,12.00
2019-02-28T14:58:02.024Z,11.53
2019-02-28T15:01:06.929Z,10.70
2019-02-28T15:04:13.112Z,11.33
2019-02-28T15:07:18.340Z,10.97
2019-02-28T15:10:23.068Z,11.67
2019-02-28T15:13:30.450Z,11.27
2019-02-28T15:16:34.289Z,11.20
2019-02-28T15:19:39.205Z,11.43
2019-02-28T15:22:44.050Z,12.57
2019-02-28T15:25:50.805Z,10.90
2019-02-28T15:28:55.132Z,12.40
2019-02-28T15:32:00.083Z,11.10
2019-02-28T15:35:05.398Z,13.53
2019-02-28T15:38:10.418Z,10.60
2019-02-28T15:41:15.257Z,11.03
2019-02-28T15:44:20.007Z,9.40
2019-02-28T15:47:24.973Z,9.23
2019-02-28T15:50:32.184Z,9.27
2019-02-28T15:53:37.948Z,9.40
2019-02-28T15:56:42.885Z,9.00
2019-02-28T15:59:49.816Z,9.13
2019-02-28T16:02:55.212Z,10.50
2019-02-28T16:06:01.637Z,8.63
2019-02-28T16:09:09.091Z,8.60
2019-02-28T16:12:15.182Z,9.13
2019-02-28T16:15:20.174Z,7.87
2019-02-28T16:18:25.914Z,9.03
2019-02-28T16:21:30.461Z,9.97
2019-02-28T16:24:36.728Z,9.07
2019-02-28T16:27:41.649Z,12.27
2019-02-28T16:30:46.397Z,8.90
2019-02-28T16:33:51.905Z,8.90
2019-02-28T16:36:57.400Z,8.23
2019-02-28T16:40:03.107Z,8.67
2019-02-28T16:43:07.844Z,8.43
2019-02-28T16:46:15.341Z,9.10
2019-02-28T16:49:19.136Z,8.47
2019-02-28T16:52:25.705Z,7.63
2019-02-28T16:55:30.884Z,7.93
2019-02-28T16:58:36.409Z,8.00
2019-02-28T17:01:41.046Z,7.50
2019-02-28T17:04:48.641Z,7.50
2019-02-28T17:07:55.005Z,7.33
2019-02-28T17:10:59.605Z,9.53
2019-02-28T17:14:13.810Z,8.77
2019-02-28T17:17:32.641Z,6.60
2019-02-28T17:20:40.713Z,6.67
2019-02-28T17:23:47.272Z,32.13
2019-02-28T17:27:11.949Z,10.97
2019-02-28T17:30:40.340Z,8.50
2019-02-28T17:33:46.636Z,10.73
2019-02-28T17:36:52.042Z,8.20
2019-02-28T17:39:56.869Z,11.70
2019-02-28T17:43:01.614Z,15.57
2019-02-28T17:46:06.737Z,16.03
2019-02-28T17:50:06.022Z,17.87
2019-02-28T17:53:37.900Z,22.90
2019-02-28T17:57:19.544Z,20.73
2019-02-28T18:01:02.456Z,33.83
2019-02-28T18:04:33.884Z,23.93
2019-02-28T18:08:06.442Z,35.10
2019-02-28T18:12:09.266Z,25.00
2019-02-28T18:15:51.388Z,25.80
2019-02-28T18:19:38.486Z,18.27
2019-02-28T18:22:56.038Z,21.67
2019-02-28T18:26:15.601Z,24.97
2019-02-28T18:30:20.119Z,21.77
2019-02-28T18:33:24.910Z,21.23
2019-02-28T18:36:31.057Z,20.90
2019-02-28T18:39:36.004Z,19.40
2019-02-28T18:42:40.925Z,20.03
2019-02-28T18:45:45.763Z,32.13
2019-02-28T18:48:51.217Z,21.83
2019-02-28T18:51:57.156Z,20.07
2019-02-28T18:55:06.138Z,21.20
2019-02-28T18:58:08.562Z,19.53
2019-02-28T19:01:14.903Z,19.30
2019-02-28T19:04:19.658Z,18.60
2019-02-28T19:07:24.597Z,20.77
2019-02-28T19:10:29.937Z,22.40
2019-02-28T19:13:34.880Z,21.43
2019-02-28T19:16:39.711Z,20.40
2019-02-28T19:19:53.792Z,21.72
2019-02-28T19:22:58.568Z,20.30
2019-02-28T19:26:03.091Z,18.80
2019-02-28T19:29:07.720Z,18.60
2019-02-28T19:35:22.766Z,18.83
2019-02-28T19:38:27.603Z,18.57
2019-02-28T19:41:32.620Z,19.27
2019-02-28T19:44:37.285Z,18.87
2019-02-28T19:47:41.969Z,17.67
2019-02-28T19:50:46.618Z,18.27
2019-02-28T19:56:58.244Z,19.17
2019-02-28T20:00:03.090Z,21.47
2019-02-28T20:03:07.821Z,18.80
2019-02-28T20:06:12.638Z,17.20
2019-02-28T20:09:17.888Z,18.10
2019-02-28T20:12:22.939Z,18.53
2019-02-28T20:15:29.771Z,18.27
2019-02-28T20:18:34.488Z,16.47
2019-02-28T20:21:39.238Z,19.30
2019-02-28T20:24:44.078Z,17.20
2019-02-28T20:27:48.979Z,17.63
2019-02-28T20:30:53.645Z,15.93
2019-02-28T20:34:00.202Z,16.50
2019-02-28T20:37:04.986Z,16.20
2019-02-28T20:40:14.064Z,17.80
2019-02-28T20:43:18.881Z,19.80
2019-02-28T20:46:23.616Z,17.03
2019-02-28T20:49:28.339Z,18.40
2019-02-28T20:52:33.182Z,19.40
2019-02-28T20:55:38.022Z,17.00
2019-02-28T20:58:42.973Z,18.27
2019-02-28T21:01:47.695Z,16.10
2019-02-28T21:04:52.472Z,16.10
2019-02-28T21:07:57.362Z,15.77
2019-02-28T21:11:02.073Z,15.80
2019-02-28T21:14:06.909Z,20.40
2019-02-28T21:17:11.724Z,43.23
2019-02-28T21:20:16.670Z,42.47
2019-02-28T21:23:21.483Z,42.70
2019-02-28T21:26:26.233Z,50.00
2019-02-28T21:29:31.311Z,54.97
2019-02-28T21:32:36.186Z,57.30
2019-02-28T21:35:41.233Z,61.13
2019-02-28T21:38:46.153Z,62.80
2019-02-28T21:41:50.898Z,63.97
2019-02-28T21:44:55.804Z,68.30
2019-02-28T21:48:00.425Z,74.00
2019-02-28T21:51:05.047Z,77.27
2019-02-28T21:54:09.672Z,80.30
2019-02-28T21:57:14.217Z,85.30
2019-02-28T22:00:21.494Z,87.17
2019-02-28T22:03:26.344Z,86.03
2019-02-28T22:06:31.158Z,94.43
2019-02-28T22:09:35.986Z,89.43
2019-02-28T22:12:40.811Z,89.70
2019-02-28T22:15:45.475Z,87.27
2019-02-28T22:18:50.270Z,92.60
2019-02-28T22:21:55.043Z,92.07
2019-02-28T22:24:59.866Z,94.20
2019-02-28T22:28:04.565Z,97.87
2019-02-28T22:31:35.269Z,97.87
2019-02-28T22:34:46.886Z,103.97
2019-02-28T22:37:51.400Z,105.43
2019-02-28T22:40:56.264Z,97.27
2019-02-28T22:44:01.143Z,96.10
2019-02-28T22:47:06.925Z,100.47
2019-02-28T22:50:11.861Z,99.77
2019-02-28T22:53:16.466Z,97.67
2019-02-28T22:56:21.298Z,99.63
2019-02-28T22:59:26.141Z,96.83
2019-02-28T23:02:31.055Z,102.43
2019-02-28T23:05:35.902Z,97.93
2019-02-28T23:08:41.681Z,101.00
2019-02-28T23:11:46.366Z,97.33
2019-02-28T23:14:51.211Z,97.50
2019-02-28T23:17:56.138Z,100.50
2019-02-28T23:21:00.970Z,95.93
2019-02-28T23:24:05.787Z,95.07
2019-02-28T23:27:22.801Z,95.50
2019-02-28T23:31:15.953Z,90.33
2019-02-28T23:34:28.238Z,92.50
2019-02-28T23:37:33.297Z,88.90
2019-02-28T23:40:38.205Z,86.87
2019-02-28T23:43:42.957Z,87.30
2019-02-28T23:46:47.563Z,87.57
2019-02-28T23:49:52.385Z,85.77
2019-02-28T23:52:57.150Z,83.10
2019-02-28T23:56:02.160Z,84.90
2019-02-28T23:59:06.774Z,81.73
